createdAt,value
2023-04-18T00:01:44.363Z,102873.75
2023-04-18T00:04:14.157Z,102880.81
2023-04-18T00:06:40.909Z,102882.97
2023-04-18T00:09:08.367Z,102881.00
2023-04-18T00:11:35.132Z,102889.19
2023-04-18T00:14:03.279Z,102883.41
2023-04-18T00:16:33.095Z,102882.84
2023-04-18T00:19:03.490Z,102889.88
2023-04-18T00:21:30.068Z,102884.34
2023-04-18T00:23:56.597Z,102884.28
2023-04-18T00:26:23.170Z,102884.81
2023-04-18T00:28:51.067Z,102889.69
2023-04-18T00:31:17.654Z,102888.00
2023-04-18T00:33:45.423Z,102892.06
2023-04-18T00:36:15.044Z,102881.09
2023-04-18T00:38:42.733Z,102895.22
2023-04-18T00:41:10.822Z,102894.66
2023-04-18T00:43:37.585Z,102888.06
2023-04-18T00:46:05.447Z,102885.25
2023-04-18T00:48:32.020Z,102884.94
2023-04-18T00:51:00.248Z,102882.47
2023-04-18T00:53:27.887Z,102879.16
2023-04-18T00:55:54.929Z,102885.41
2023-04-18T00:58:21.594Z,102884.25
2023-04-18T01:00:50.789Z,102876.81
2023-04-18T01:03:19.295Z,102880.03
2023-04-18T01:05:46.486Z,102880.78
2023-04-18T01:08:13.298Z,102876.91
2023-04-18T01:10:42.040Z,102876.34
2023-04-18T01:13:16.509Z,102874.09
2023-04-18T01:15:44.542Z,102875.44
2023-04-18T01:18:12.327Z,102877.03
2023-04-18T01:20:41.639Z,102877.53
2023-04-18T01:23:10.325Z,102873.91
2023-04-18T01:25:37.326Z,102869.53
2023-04-18T01:28:04.728Z,102873.25
2023-04-18T01:30:32.362Z,102863.91
2023-04-18T01:33:01.485Z,102866.31
2023-04-18T01:35:28.493Z,102859.44
2023-04-18T01:37:57.336Z,102862.44
2023-04-18T01:40:24.703Z,102855.84
2023-04-18T01:42:51.296Z,102858.50
2023-04-18T01:45:20.163Z,102857.66
2023-04-18T01:47:47.203Z,102862.53
2023-04-18T01:50:13.970Z,102853.69
2023-04-18T01:52:42.574Z,102863.78
2023-04-18T01:55:09.617Z,102860.72
2023-04-18T01:57:36.829Z,102853.84
2023-04-18T02:00:08.045Z,102855.16
2023-04-18T02:02:43.503Z,102853.75
2023-04-18T02:05:12.889Z,102861.13
2023-04-18T02:07:40.824Z,102854.00
2023-04-18T02:10:07.876Z,102852.34
2023-04-18T02:12:35.891Z,102853.44
2023-04-18T02:15:02.700Z,102862.13
2023-04-18T02:17:32.629Z,102848.75
2023-04-18T02:19:59.103Z,102853.28
2023-04-18T02:22:25.641Z,102852.69
2023-04-18T02:24:52.805Z,102856.41
2023-04-18T02:27:20.304Z,102853.09
2023-04-18T02:29:46.855Z,102851.69
2023-04-18T02:32:13.593Z,102850.03
2023-04-18T02:34:43.500Z,102853.00
2023-04-18T02:37:10.029Z,102850.53
2023-04-18T02:39:37.885Z,102856.22
2023-04-18T02:42:05.636Z,102853.94
2023-04-18T02:44:32.106Z,102856.34
2023-04-18T02:46:59.209Z,102854.94
2023-04-18T02:49:25.892Z,102860.88
2023-04-18T02:51:55.702Z,102866.22
2023-04-18T02:54:22.282Z,102862.31
2023-04-18T02:57:04.073Z,102862.22
2023-04-18T02:59:52.787Z,102860.81
2023-04-18T03:02:39.404Z,102854.53
2023-04-18T03:05:21.416Z,102855.28
2023-04-18T03:07:48.460Z,102862.28
2023-04-18T03:10:16.333Z,102850.59
2023-04-18T03:12:43.021Z,102851.06
2023-04-18T03:15:11.621Z,102852.38
2023-04-18T03:17:39.162Z,102857.47
2023-04-18T03:20:06.394Z,102849.56
2023-04-18T03:22:32.910Z,102851.69
2023-04-18T03:25:01.070Z,102854.63
2023-04-18T03:27:40.435Z,102858.91
2023-04-18T03:30:07.875Z,102857.72
2023-04-18T03:32:36.425Z,102852.78
2023-04-18T03:35:03.326Z,102853.25
2023-04-18T03:37:30.213Z,102857.88
2023-04-18T03:39:57.241Z,102867.31
2023-04-18T03:42:26.602Z,102862.41
2023-04-18T03:44:55.203Z,102856.38
2023-04-18T03:47:21.946Z,102866.66
2023-04-18T03:49:54.456Z,102867.59
2023-04-18T03:52:22.578Z,102865.59
2023-04-18T03:54:49.092Z,102863.34
2023-04-18T03:57:17.689Z,102863.59
2023-04-18T03:59:46.053Z,102873.28
2023-04-18T04:02:13.927Z,102872.22
2023-04-18T04:04:43.099Z,102866.78
2023-04-18T04:07:10.758Z,102870.09
2023-04-18T04:09:37.266Z,102876.72
2023-04-18T04:12:03.972Z,102863.47
2023-04-18T04:14:30.585Z,102866.53
2023-04-18T04:16:57.196Z,102873.16
2023-04-18T04:19:23.778Z,102867.72
2023-04-18T04:22:12.032Z,102868.91
2023-04-18T04:24:46.681Z,102866.78
2023-04-18T04:27:15.659Z,102870.03
2023-04-18T04:29:43.710Z,102865.19
2023-04-18T04:32:17.795Z,102867.69
2023-04-18T04:34:46.281Z,102866.97
2023-04-18T04:37:14.197Z,102862.59
2023-04-18T04:39:53.270Z,102873.22
2023-04-18T04:42:32.993Z,102868.63
2023-04-18T04:45:08.222Z,102871.69
2023-04-18T04:47:36.306Z,102875.22
2023-04-18T04:50:05.243Z,102875.00
2023-04-18T04:52:32.640Z,102877.72
2023-04-18T04:54:59.584Z,102880.19
2023-04-18T04:57:26.466Z,102884.56
2023-04-18T04:59:53.310Z,102885.16
2023-04-18T05:02:23.163Z,102881.59
2023-04-18T05:04:50.070Z,102873.69
2023-04-18T05:07:16.609Z,102888.69
2023-04-18T05:09:43.397Z,102884.69
2023-04-18T05:12:09.884Z,102883.59
2023-04-18T05:14:36.386Z,102887.16
2023-04-18T05:17:04.046Z,102883.59
2023-04-18T05:19:31.989Z,102884.19
2023-04-18T05:21:58.503Z,102887.50
2023-04-18T05:24:27.601Z,102889.97
2023-04-18T05:26:54.340Z,102894.34
2023-04-18T05:29:21.044Z,102890.06
2023-04-18T05:31:47.841Z,102890.88
2023-04-18T05:34:17.235Z,102897.97
2023-04-18T05:36:45.851Z,102905.66
2023-04-18T05:39:12.649Z,102893.97
2023-04-18T05:41:39.171Z,102903.53
2023-04-18T05:44:07.155Z,102900.81
2023-04-18T05:46:33.835Z,102907.44
2023-04-18T05:49:00.649Z,102907.53
2023-04-18T05:51:28.411Z,102910.84
2023-04-18T05:53:55.043Z,102913.09
2023-04-18T05:56:21.535Z,102914.25
2023-04-18T05:58:51.203Z,102910.47
2023-04-18T06:01:21.355Z,102909.97
2023-04-18T06:03:48.159Z,102907.81
2023-04-18T06:06:14.996Z,102910.03
2023-04-18T06:08:41.722Z,102915.63
2023-04-18T06:11:09.105Z,102917.28
2023-04-18T06:13:38.853Z,102919.50
2023-04-18T06:16:07.966Z,102914.41
2023-04-18T06:18:36.617Z,102923.50
2023-04-18T06:21:03.122Z,102920.88
2023-04-18T06:23:29.656Z,102925.31
2023-04-18T06:25:56.921Z,102926.50
2023-04-18T06:28:23.756Z,102925.03
2023-04-18T06:30:50.916Z,102921.56
2023-04-18T06:33:17.450Z,102928.03
2023-04-18T06:35:44.206Z,102925.69
2023-04-18T06:38:14.676Z,102932.16
2023-04-18T06:40:41.227Z,102926.28
2023-04-18T06:43:07.682Z,102928.59
2023-04-18T06:45:34.936Z,102928.16
2023-04-18T06:48:03.773Z,102938.66
2023-04-18T06:50:30.638Z,102931.63
2023-04-18T06:52:57.629Z,102936.31
2023-04-18T06:55:24.136Z,102942.34
2023-04-18T06:57:52.071Z,102941.53
2023-04-18T07:03:39.654Z,102932.28
2023-04-18T07:06:10.468Z,102940.81
2023-04-18T07:08:38.021Z,102940.34
2023-04-18T07:11:06.214Z,102944.72
2023-04-18T07:13:35.889Z,102938.81
2023-04-18T07:16:03.549Z,102947.34
2023-04-18T07:18:37.353Z,102942.97
2023-04-18T07:21:07.482Z,102942.44
2023-04-18T07:23:34.489Z,102949.06
2023-04-18T07:26:03.633Z,102949.56
2023-04-18T07:28:32.085Z,102952.03
2023-04-18T07:31:00.193Z,102940.38
2023-04-18T07:33:26.943Z,102944.03
2023-04-18T07:35:53.497Z,102940.63
2023-04-18T07:38:20.725Z,102935.78
2023-04-18T07:41:09.214Z,102943.53
2023-04-18T07:43:43.855Z,102944.78
2023-04-18T07:46:13.036Z,102945.72
2023-04-18T07:48:42.325Z,102939.13
2023-04-18T07:51:08.913Z,102931.72
2023-04-18T07:53:35.766Z,102931.91
2023-04-18T07:56:02.273Z,102938.47
2023-04-18T07:58:29.182Z,102939.56
2023-04-18T08:00:56.060Z,102937.44
2023-04-18T08:03:22.813Z,102940.22
2023-04-18T08:05:50.093Z,102941.75
2023-04-18T08:08:16.733Z,102935.81
2023-04-18T08:10:43.284Z,102942.63
2023-04-18T08:13:09.818Z,102933.59
2023-04-18T08:15:36.407Z,102933.13
2023-04-18T08:18:03.028Z,102937.53
2023-04-18T08:20:31.753Z,102939.47
2023-04-18T08:23:07.612Z,102935.91
2023-04-18T08:25:36.393Z,102932.03
2023-04-18T08:28:04.096Z,102938.94
2023-04-18T08:30:31.662Z,102955.13
2023-04-18T08:33:01.063Z,102941.59
2023-04-18T08:35:30.114Z,102941.88
2023-04-18T08:38:01.611Z,102938.06
2023-04-18T08:40:30.229Z,102949.06
2023-04-18T08:42:58.550Z,102941.09
2023-04-18T08:45:26.138Z,102941.13
2023-04-18T08:47:54.016Z,102940.28
2023-04-18T08:50:21.397Z,102944.69
2023-04-18T08:52:50.639Z,102939.72
2023-04-18T08:55:18.987Z,102936.97
2023-04-18T08:57:45.802Z,102941.31
2023-04-18T09:00:14.319Z,102947.34
2023-04-18T09:02:42.410Z,102951.22
2023-04-18T09:05:15.037Z,102954.81
2023-04-18T09:07:42.500Z,102941.88
2023-04-18T09:10:10.121Z,102934.16
2023-04-18T09:12:50.736Z,102945.03
2023-04-18T09:15:20.405Z,102948.38
2023-04-18T09:17:50.945Z,102950.25
2023-04-18T09:20:35.165Z,102943.84
2023-04-18T09:23:10.339Z,102931.78
2023-04-18T09:25:47.891Z,102927.34
2023-04-18T09:28:33.105Z,102935.34
2023-04-18T09:31:10.176Z,102934.56
2023-04-18T09:33:38.220Z,102924.63
2023-04-18T09:36:19.971Z,102933.00
2023-04-18T09:38:47.555Z,102946.84
2023-04-18T09:41:21.261Z,102940.25
2023-04-18T09:43:48.609Z,102935.00
2023-04-18T09:46:17.514Z,102924.97
2023-04-18T09:48:44.233Z,102923.53
2023-04-18T09:51:14.803Z,102933.84
2023-04-18T09:53:44.545Z,102952.03
2023-04-18T09:56:28.216Z,102935.22
2023-04-18T09:59:07.312Z,102933.72
2023-04-18T10:01:34.579Z,102925.16
2023-04-18T10:04:03.345Z,102926.84
2023-04-18T10:06:33.446Z,102924.63
2023-04-18T10:09:04.211Z,102925.44
2023-04-18T10:11:32.371Z,102920.75
2023-04-18T10:14:06.875Z,102922.84
2023-04-18T10:16:34.923Z,102928.75
2023-04-18T10:19:29.374Z,102922.97
2023-04-18T10:22:01.470Z,102932.63
2023-04-18T10:24:48.338Z,102928.59
2023-04-18T10:27:17.019Z,102920.34
2023-04-18T10:29:49.382Z,102917.84
2023-04-18T10:32:18.129Z,102914.78
2023-04-18T10:34:47.194Z,102917.03
2023-04-18T10:37:13.747Z,102930.69
2023-04-18T10:40:07.137Z,102921.13
2023-04-18T10:42:51.811Z,102921.53
2023-04-18T10:45:22.092Z,102914.28
2023-04-18T10:47:48.965Z,102911.38
2023-04-18T10:50:19.456Z,102897.09
2023-04-18T10:52:46.154Z,102888.03
2023-04-18T10:55:19.163Z,102888.97
2023-04-18T10:57:50.675Z,102890.31
2023-04-18T11:00:22.793Z,102891.22
2023-04-18T11:02:52.167Z,102890.72
2023-04-18T11:05:21.186Z,102888.25
2023-04-18T11:07:50.675Z,102870.59
2023-04-18T11:10:26.233Z,102893.28
2023-04-18T11:12:54.176Z,102894.09
2023-04-18T11:15:22.942Z,102886.84
2023-04-18T11:18:03.846Z,102888.59
2023-04-18T11:20:38.553Z,102888.94
2023-04-18T11:23:16.182Z,102886.44
2023-04-18T11:25:44.847Z,102885.38
2023-04-18T11:28:14.001Z,102881.75
2023-04-18T11:30:41.328Z,102881.41
2023-04-18T11:33:13.375Z,102875.66
2023-04-18T11:35:44.582Z,102876.59
2023-04-18T11:38:15.939Z,102876.75
2023-04-18T11:40:50.846Z,102873.22
2023-04-18T11:43:22.513Z,102874.34
2023-04-18T11:45:57.025Z,102881.59
2023-04-18T11:48:24.202Z,102872.00
2023-04-18T11:50:50.763Z,102883.00
2023-04-18T11:53:35.457Z,102880.28
2023-04-18T11:56:03.526Z,102878.50
2023-04-18T11:58:34.377Z,102882.66
2023-04-18T12:01:22.348Z,102885.78
2023-04-18T12:04:05.975Z,102879.81
2023-04-18T12:06:49.222Z,102874.53
2023-04-18T12:09:17.465Z,102878.06
2023-04-18T12:11:44.368Z,102877.16
2023-04-18T12:14:21.610Z,102872.47
2023-04-18T12:16:51.838Z,102883.34
2023-04-18T12:19:20.598Z,102884.50
2023-04-18T12:22:05.057Z,102881.75
2023-04-18T12:24:32.316Z,102869.78
2023-04-18T12:27:00.671Z,102875.91
2023-04-18T12:29:28.733Z,102871.91
2023-04-18T12:31:55.555Z,102881.53
2023-04-18T12:34:22.102Z,102868.69
2023-04-18T12:36:48.686Z,102877.72
2023-04-18T12:39:15.623Z,102870.72
2023-04-18T12:41:43.238Z,102870.44
2023-04-18T12:44:09.679Z,102858.34
2023-04-18T12:46:36.415Z,102868.56
2023-04-18T12:49:02.966Z,102857.38
2023-04-18T12:51:29.496Z,102865.03
2023-04-18T12:53:56.312Z,102857.59
2023-04-18T12:56:22.859Z,102863.91
2023-04-18T12:58:49.411Z,102858.63
2023-04-18T13:01:16.511Z,102863.09
2023-04-18T13:03:45.554Z,102865.09
2023-04-18T13:06:15.551Z,102862.03
2023-04-18T13:08:42.562Z,102856.59
2023-04-18T13:11:09.266Z,102867.31
2023-04-18T13:13:37.147Z,102857.69
2023-04-18T13:16:04.342Z,102860.16
2023-04-18T13:18:30.854Z,102868.44
2023-04-18T13:20:58.428Z,102859.13
2023-04-18T13:23:24.999Z,102858.31
2023-04-18T13:25:51.639Z,102869.03
2023-04-18T13:28:18.158Z,102859.03
2023-04-18T13:30:45.210Z,102866.06
2023-04-18T13:33:11.785Z,102866.00
2023-04-18T13:35:38.370Z,102862.22
2023-04-18T13:38:04.785Z,102862.69
2023-04-18T13:40:33.400Z,102867.44
2023-04-18T13:42:59.905Z,102856.75
2023-04-18T13:45:26.416Z,102866.22
2023-04-18T13:47:52.845Z,102852.56
2023-04-18T13:50:20.278Z,102847.56
2023-04-18T13:52:48.628Z,102846.66
2023-04-18T13:55:16.116Z,102848.31
2023-04-18T13:57:42.602Z,102855.00
2023-04-18T14:00:09.841Z,102852.63
2023-04-18T14:02:40.270Z,102852.56
2023-04-18T14:05:07.384Z,102850.34
2023-04-18T14:07:34.018Z,102850.91
2023-04-18T14:10:00.645Z,102860.59
2023-04-18T14:12:27.123Z,102848.94
2023-04-18T14:14:53.735Z,102844.41
2023-04-18T14:17:20.217Z,102843.34
2023-04-18T14:19:46.704Z,102852.75
2023-04-18T14:22:13.494Z,102840.81
2023-04-18T14:24:39.996Z,102844.31
2023-04-18T14:27:06.511Z,102842.84
2023-04-18T14:29:33.018Z,102840.06
2023-04-18T14:32:01.952Z,102831.06
2023-04-18T14:34:31.229Z,102841.88
2023-04-18T14:36:59.813Z,102836.09
2023-04-18T14:39:26.243Z,102827.97
2023-04-18T14:41:54.669Z,102836.94
2023-04-18T14:44:21.109Z,102824.19
2023-04-18T14:46:48.813Z,102832.56
2023-04-18T14:49:15.526Z,102828.34
2023-04-18T14:51:43.390Z,102832.06
2023-04-18T14:54:10.162Z,102822.31
2023-04-18T14:56:36.664Z,102818.28
2023-04-18T14:59:03.769Z,102817.03
2023-04-18T15:01:31.657Z,102815.09
2023-04-18T15:04:00.623Z,102824.78
2023-04-18T15:06:27.297Z,102826.06
2023-04-18T15:08:56.666Z,102812.78
2023-04-18T15:11:23.687Z,102807.84
2023-04-18T15:13:51.700Z,102809.25
2023-04-18T15:16:18.348Z,102821.19
2023-04-18T15:18:45.118Z,102804.56
2023-04-18T15:21:11.560Z,102810.09
2023-04-18T15:23:38.289Z,102809.25
2023-04-18T15:26:04.884Z,102804.34
2023-04-18T15:28:31.364Z,102822.47
2023-04-18T15:30:57.866Z,102812.75
2023-04-18T15:33:25.933Z,102803.66
2023-04-18T15:35:52.477Z,102801.56
2023-04-18T15:38:19.093Z,102807.38
2023-04-18T15:40:45.724Z,102802.63
2023-04-18T15:43:13.725Z,102800.59
2023-04-18T15:45:40.697Z,102798.13
2023-04-18T15:48:07.178Z,102797.09
2023-04-18T15:50:33.876Z,102799.94
2023-04-18T15:53:00.600Z,102795.63
2023-04-18T15:55:29.839Z,102795.53
2023-04-18T15:57:56.399Z,102788.69
2023-04-18T16:00:26.533Z,102795.84
2023-04-18T16:02:53.637Z,102789.19
2023-04-18T16:05:20.149Z,102782.56
2023-04-18T16:07:46.573Z,102785.03
2023-04-18T16:10:15.017Z,102798.53
2023-04-18T16:12:41.559Z,102788.00
2023-04-18T16:15:09.653Z,102793.22
2023-04-18T16:17:37.357Z,102787.41
2023-04-18T16:20:06.087Z,102788.94
2023-04-18T16:22:32.801Z,102784.66
2023-04-18T16:24:59.733Z,102787.94
2023-04-18T16:27:26.303Z,102786.00
2023-04-18T16:29:53.732Z,102783.31
2023-04-18T16:32:20.399Z,102790.41
2023-04-18T16:34:47.357Z,102794.94
2023-04-18T16:37:13.771Z,102799.22
2023-04-18T16:39:42.499Z,102789.09
2023-04-18T16:42:09.072Z,102791.84
2023-04-18T16:44:35.653Z,102785.50
2023-04-18T16:47:02.353Z,102795.13
2023-04-18T16:49:28.996Z,102793.47
2023-04-18T16:51:55.460Z,102791.63
2023-04-18T16:54:21.909Z,102783.03
2023-04-18T16:56:48.618Z,102785.22
2023-04-18T16:59:16.223Z,102783.28
2023-04-18T17:01:42.758Z,102785.72
2023-04-18T17:04:09.358Z,102775.53
2023-04-18T17:06:35.898Z,102771.94
2023-04-18T17:09:03.558Z,102776.34
2023-04-18T17:11:32.050Z,102784.69
2023-04-18T17:13:58.444Z,102774.56
2023-04-18T17:16:25.048Z,102778.72
2023-04-18T17:18:51.531Z,102782.13
2023-04-18T17:21:18.051Z,102780.88
2023-04-18T17:23:44.579Z,102780.13
2023-04-18T17:26:11.219Z,102785.72
2023-04-18T17:28:37.762Z,102789.59
2023-04-18T17:31:05.994Z,102787.41
2023-04-18T17:33:32.502Z,102790.72
2023-04-18T17:35:58.980Z,102790.72
2023-04-18T17:38:25.587Z,102790.50
2023-04-18T17:41:00.404Z,102791.31
2023-04-18T17:43:27.271Z,102789.91
2023-04-18T17:45:54.042Z,102795.41
2023-04-18T17:48:22.784Z,102795.19
2023-04-18T17:50:49.195Z,102794.72
2023-04-18T17:53:18.490Z,102788.97
2023-04-18T17:55:46.815Z,102792.25
2023-04-18T17:58:16.579Z,102795.91
2023-04-18T18:00:44.335Z,102794.56
2023-04-18T18:03:16.344Z,102792.69
2023-04-18T18:05:49.613Z,102796.03
2023-04-18T18:08:16.396Z,102794.97
2023-04-18T18:10:46.535Z,102790.88
2023-04-18T18:13:13.684Z,102786.25
2023-04-18T18:15:40.210Z,102789.88
2023-04-18T18:18:06.788Z,102799.31
2023-04-18T18:20:33.282Z,102794.69
2023-04-18T18:22:59.817Z,102801.88
2023-04-18T18:25:26.971Z,102805.22
2023-04-18T18:27:54.445Z,102801.94
2023-04-18T18:30:21.687Z,102799.75
2023-04-18T18:32:48.393Z,102800.91
2023-04-18T18:35:16.077Z,102801.50
2023-04-18T18:37:43.626Z,102809.00
2023-04-18T18:40:11.720Z,102805.47
2023-04-18T18:42:38.221Z,102812.94
2023-04-18T18:45:05.841Z,102812.69
2023-04-18T18:47:32.349Z,102814.66
2023-04-18T18:49:58.976Z,102818.56
2023-04-18T18:52:28.038Z,102821.66
2023-04-18T18:54:55.040Z,102821.66
2023-04-18T18:57:21.595Z,102822.81
2023-04-18T18:59:50.982Z,102825.59
2023-04-18T19:02:17.710Z,102826.44
2023-04-18T19:04:44.708Z,102826.19
2023-04-18T19:07:11.591Z,102825.66
2023-04-18T19:09:38.114Z,102835.00
2023-04-18T19:12:05.234Z,102839.75
2023-04-18T19:14:33.862Z,102840.63
2023-04-18T19:17:00.748Z,102848.31
2023-04-18T19:19:27.263Z,102848.06
2023-04-18T19:21:53.776Z,102846.72
2023-04-18T19:24:20.629Z,102850.84
2023-04-18T19:26:47.117Z,102859.09
2023-04-18T19:29:16.408Z,102863.22
2023-04-18T19:31:43.981Z,102866.00
2023-04-18T19:34:10.904Z,102871.25
2023-04-18T19:36:37.391Z,102866.59
2023-04-18T19:39:04.142Z,102872.38
2023-04-18T19:41:30.653Z,102868.78
2023-04-18T19:43:59.395Z,102878.16
2023-04-18T19:46:27.093Z,102878.72
2023-04-18T19:48:54.720Z,102881.72
2023-04-18T19:51:21.607Z,102881.75
2023-04-18T19:53:48.148Z,102875.97
2023-04-18T19:56:15.724Z,102882.63
2023-04-18T19:58:46.444Z,102892.78
2023-04-18T20:01:16.715Z,102890.59
2023-04-18T20:03:43.589Z,102888.66
2023-04-18T20:06:11.492Z,102898.28
2023-04-18T20:08:41.510Z,102889.78
2023-04-18T20:11:10.412Z,102895.81
2023-04-18T20:13:38.703Z,102902.69
2023-04-18T20:16:07.447Z,102900.22
2023-04-18T20:18:35.847Z,102898.31
2023-04-18T20:21:03.461Z,102903.53
2023-04-18T20:23:30.911Z,102906.81
2023-04-18T20:25:57.703Z,102910.13
2023-04-18T20:28:24.451Z,102910.66
2023-04-18T20:30:51.050Z,102913.13
2023-04-18T20:33:17.537Z,102909.00
2023-04-18T20:35:48.202Z,102899.69
2023-04-18T20:38:15.160Z,102903.28
2023-04-18T20:40:47.229Z,102915.59
2023-04-18T20:43:17.397Z,102912.84
2023-04-18T20:45:45.986Z,102909.56
2023-04-18T20:48:14.006Z,102903.25
2023-04-18T20:50:41.043Z,102912.81
2023-04-18T20:53:07.476Z,102904.03
2023-04-18T20:55:33.939Z,102914.72
2023-04-18T20:58:00.573Z,102925.41
2023-04-18T21:00:28.160Z,102915.81
2023-04-18T21:02:56.217Z,102922.94
2023-04-18T21:05:23.562Z,102911.69
2023-04-18T21:07:50.366Z,102914.41
2023-04-18T21:10:21.208Z,102920.16
2023-04-18T21:12:47.889Z,102923.72
2023-04-18T21:15:17.695Z,102922.06
2023-04-18T21:17:45.837Z,102926.16
2023-04-18T21:20:13.719Z,102921.22
2023-04-18T21:22:40.476Z,102924.78
2023-04-18T21:25:07.558Z,102923.69
2023-04-18T21:27:34.022Z,102932.16
2023-04-18T21:30:02.249Z,102930.81
2023-04-18T21:32:30.465Z,102925.88
2023-04-18T21:34:57.802Z,102928.88
2023-04-18T21:37:25.189Z,102932.41
2023-04-18T21:39:52.133Z,102920.63
2023-04-18T21:42:18.689Z,102931.31
2023-04-18T21:44:45.247Z,102930.75
2023-04-18T21:47:11.702Z,102922.25
2023-04-18T21:49:38.247Z,102925.50
2023-04-18T21:52:04.922Z,102922.22
2023-04-18T21:54:31.367Z,102933.69
2023-04-18T21:56:58.453Z,102928.75
2023-04-18T21:59:24.918Z,102932.88
2023-04-18T22:01:51.363Z,102929.59
2023-04-18T22:04:21.007Z,102925.19
2023-04-18T22:06:47.842Z,102929.03
2023-04-18T22:09:14.462Z,102926.53
2023-04-18T22:11:41.246Z,102923.81
2023-04-18T22:14:09.842Z,102919.94
2023-04-18T22:16:38.054Z,102918.31
2023-04-18T22:19:05.658Z,102918.56
2023-04-18T22:21:32.204Z,102912.81
2023-04-18T22:23:58.634Z,102915.81
2023-04-18T22:26:25.293Z,102919.06
2023-04-18T22:28:51.761Z,102923.16
2023-04-18T22:31:18.298Z,102924.50
2023-04-18T22:33:47.409Z,102927.78
2023-04-18T22:36:13.945Z,102931.03
2023-04-18T22:38:40.345Z,102923.13
2023-04-18T22:41:07.828Z,102919.00
2023-04-18T22:43:34.395Z,102922.78
2023-04-18T22:46:00.973Z,102924.69
2023-04-18T22:48:27.488Z,102926.56
2023-04-18T22:50:54.281Z,102929.56
2023-04-18T22:53:21.992Z,102928.75
2023-04-18T22:55:48.427Z,102930.91
2023-04-18T22:58:14.919Z,102936.09
2023-04-18T23:00:41.526Z,102933.63
2023-04-18T23:03:08.191Z,102937.97
2023-04-18T23:05:35.328Z,102931.38
2023-04-18T23:08:01.954Z,102941.78
2023-04-18T23:10:29.950Z,102937.38
2023-04-18T23:12:56.557Z,102940.63
2023-04-18T23:15:23.170Z,102951.84
2023-04-18T23:17:52.891Z,102947.44
2023-04-18T23:20:20.746Z,102959.22
2023-04-18T23:22:51.477Z,102955.91
2023-04-18T23:25:19.304Z,102946.88
2023-04-18T23:27:45.791Z,102954.84
2023-04-18T23:30:14.108Z,102957.31
2023-04-18T23:32:40.645Z,102952.66
2023-04-18T23:35:07.569Z,102951.00
2023-04-18T23:37:35.488Z,102955.66
2023-04-18T23:40:05.328Z,102941.72
2023-04-18T23:42:36.156Z,102950.75
2023-04-18T23:45:04.044Z,102942.81
2023-04-18T23:47:30.634Z,102952.66
2023-04-18T23:49:57.494Z,102941.97
2023-04-18T23:52:24.191Z,102943.91
2023-04-18T23:54:50.717Z,102947.72
2023-04-18T23:57:23.954Z,102947.16
2023-04-18T23:59:50.488Z,102940.28
